Terminal Aerodrome Forecast
Issued by NWS

Home | Current Version | Previous Version | Graphics & Text | Print | Product List | Glossary On
Versions: 1 2 3 4 5 6 7 8 9 10 11 12 13 14 15 16 17 18 19 20 21 22 23 24
000
FTUS43 KLSX 180900 AAA
TAFSUS
TAF AMD
KSUS 180904Z 1809/1906 00000KT 4SM BR SCT150 BKN250
     FM181400 13007KT P6SM BKN050
     FM190400 10007KT P6SM VCSH BKN050 OVC120=

USA.gov is the U.S. government's official web portal to all federal, state and local government web resources and services.